sensor_id;sensor_type;location;lat;lon;timestamp;P1;durP1;ratioP1;P2;durP2;ratioP2
64387;SDS011;50709;52.648;4.764;2023-04-06T00:01:20;20.23;;;11.45;;
64387;SDS011;50709;52.648;4.764;2023-04-06T00:03:45;16.38;;;10.45;;
64387;SDS011;50709;52.648;4.764;2023-04-06T00:06:33;19.60;;;11.48;;
64387;SDS011;50709;52.648;4.764;2023-04-06T00:09:19;19.70;;;11.38;;
64387;SDS011;50709;52.648;4.764;2023-04-06T00:11:47;21.58;;;11.75;;
64387;SDS011;50709;52.648;4.764;2023-04-06T00:14:14;18.42;;;10.50;;
64387;SDS011;50709;52.648;4.764;2023-04-06T00:16:43;23.42;;;12.88;;
64387;SDS011;50709;52.648;4.764;2023-04-06T00:19:10;19.05;;;10.82;;
64387;SDS011;50709;52.648;4.764;2023-04-06T00:21:58;21.90;;;11.55;;
64387;SDS011;50709;52.648;4.764;2023-04-06T00:24:30;17.38;;;11.13;;
64387;SDS011;50709;52.648;4.764;2023-04-06T00:26:55;17.70;;;11.90;;
64387;SDS011;50709;52.648;4.764;2023-04-06T00:29:41;18.58;;;10.95;;
64387;SDS011;50709;52.648;4.764;2023-04-06T00:32:08;18.27;;;10.88;;
64387;SDS011;50709;52.648;4.764;2023-04-06T00:34:54;17.88;;;10.55;;
64387;SDS011;50709;52.648;4.764;2023-04-06T00:37:20;21.02;;;10.95;;
64387;SDS011;50709;52.648;4.764;2023-04-06T00:39:47;20.90;;;11.30;;
64387;SDS011;50709;52.648;4.764;2023-04-06T00:42:12;17.80;;;10.65;;
64387;SDS011;50709;52.648;4.764;2023-04-06T00:44:43;17.40;;;10.88;;
64387;SDS011;50709;52.648;4.764;2023-04-06T00:47:12;21.02;;;11.35;;
64387;SDS011;50709;52.648;4.764;2023-04-06T00:49:40;19.15;;;10.95;;
64387;SDS011;50709;52.648;4.764;2023-04-06T00:52:06;18.10;;;10.43;;
64387;SDS011;50709;52.648;4.764;2023-04-06T00:54:41;17.17;;;10.27;;
64387;SDS011;50709;52.648;4.764;2023-04-06T00:57:26;19.20;;;11.02;;
64387;SDS011;50709;52.648;4.764;2023-04-06T01:00:02;17.85;;;10.65;;
64387;SDS011;50709;52.648;4.764;2023-04-06T01:02:32;19.52;;;11.77;;
64387;SDS011;50709;52.648;4.764;2023-04-06T01:07:33;19.90;;;10.48;;
64387;SDS011;50709;52.648;4.764;2023-04-06T01:10:02;19.38;;;10.75;;
64387;SDS011;50709;52.648;4.764;2023-04-06T01:12:51;19.48;;;11.27;;
64387;SDS011;50709;52.648;4.764;2023-04-06T01:15:19;21.15;;;10.93;;
64387;SDS011;50709;52.648;4.764;2023-04-06T01:17:50;18.77;;;9.80;;
64387;SDS011;50709;52.648;4.764;2023-04-06T01:20:20;18.60;;;10.70;;
64387;SDS011;50709;52.648;4.764;2023-04-06T01:22:46;19.25;;;10.80;;
64387;SDS011;50709;52.648;4.764;2023-04-06T01:25:18;17.08;;;10.30;;
64387;SDS011;50709;52.648;4.764;2023-04-06T01:27:46;19.02;;;10.55;;
64387;SDS011;50709;52.648;4.764;2023-04-06T01:30:16;20.08;;;11.02;;
64387;SDS011;50709;52.648;4.764;2023-04-06T01:32:52;20.45;;;11.45;;
64387;SDS011;50709;52.648;4.764;2023-04-06T01:35:58;17.75;;;10.73;;
64387;SDS011;50709;52.648;4.764;2023-04-06T01:38:23;18.48;;;10.55;;
64387;SDS011;50709;52.648;4.764;2023-04-06T01:40:49;19.15;;;10.38;;
64387;SDS011;50709;52.648;4.764;2023-04-06T01:43:16;18.98;;;10.68;;
64387;SDS011;50709;52.648;4.764;2023-04-06T01:45:43;19.73;;;10.80;;
64387;SDS011;50709;52.648;4.764;2023-04-06T01:48:29;19.60;;;10.60;;
64387;SDS011;50709;52.648;4.764;2023-04-06T01:50:59;19.25;;;11.27;;
64387;SDS011;50709;52.648;4.764;2023-04-06T01:53:25;19.17;;;10.77;;
64387;SDS011;50709;52.648;4.764;2023-04-06T01:55:50;18.10;;;10.35;;
64387;SDS011;50709;52.648;4.764;2023-04-06T01:58:16;19.40;;;10.98;;
64387;SDS011;50709;52.648;4.764;2023-04-06T02:00:48;18.02;;;10.18;;
64387;SDS011;50709;52.648;4.764;2023-04-06T02:03:13;20.48;;;12.07;;
64387;SDS011;50709;52.648;4.764;2023-04-06T02:05:40;19.45;;;10.23;;
64387;SDS011;50709;52.648;4.764;2023-04-06T02:08:05;15.95;;;9.57;;
64387;SDS011;50709;52.648;4.764;2023-04-06T02:10:34;20.52;;;10.55;;
64387;SDS011;50709;52.648;4.764;2023-04-06T02:13:05;18.13;;;10.48;;
64387;SDS011;50709;52.648;4.764;2023-04-06T02:15:32;16.95;;;10.38;;
64387;SDS011;50709;52.648;4.764;2023-04-06T02:18:17;18.17;;;10.38;;
64387;SDS011;50709;52.648;4.764;2023-04-06T02:20:45;20.70;;;10.35;;
64387;SDS011;50709;52.648;4.764;2023-04-06T02:23:30;17.90;;;10.18;;
64387;SDS011;50709;52.648;4.764;2023-04-06T02:25:57;19.17;;;10.57;;
64387;SDS011;50709;52.648;4.764;2023-04-06T02:28:27;17.33;;;9.90;;
64387;SDS011;50709;52.648;4.764;2023-04-06T02:30:55;17.45;;;9.57;;
64387;SDS011;50709;52.648;4.764;2023-04-06T02:33:22;16.88;;;9.77;;
64387;SDS011;50709;52.648;4.764;2023-04-06T02:35:48;16.67;;;9.88;;
64387;SDS011;50709;52.648;4.764;2023-04-06T02:38:14;21.85;;;10.50;;
64387;SDS011;50709;52.648;4.764;2023-04-06T02:40:59;16.52;;;9.85;;
64387;SDS011;50709;52.648;4.764;2023-04-06T02:43:45;18.30;;;10.13;;
64387;SDS011;50709;52.648;4.764;2023-04-06T02:46:10;17.00;;;10.05;;
64387;SDS011;50709;52.648;4.764;2023-04-06T02:48:36;16.83;;;9.55;;
64387;SDS011;50709;52.648;4.764;2023-04-06T02:51:21;18.73;;;10.07;;
64387;SDS011;50709;52.648;4.764;2023-04-06T02:54:32;14.43;;;8.88;;
64387;SDS011;50709;52.648;4.764;2023-04-06T02:57:03;15.52;;;10.07;;
64387;SDS011;50709;52.648;4.764;2023-04-06T02:59:29;16.92;;;10.23;;
64387;SDS011;50709;52.648;4.764;2023-04-06T03:01:59;17.33;;;9.52;;
64387;SDS011;50709;52.648;4.764;2023-04-06T03:04:26;16.25;;;9.35;;
64387;SDS011;50709;52.648;4.764;2023-04-06T03:07:32;17.13;;;9.93;;
64387;SDS011;50709;52.648;4.764;2023-04-06T03:09:58;17.45;;;9.98;;
64387;SDS011;50709;52.648;4.764;2023-04-06T03:12:26;16.60;;;9.32;;
64387;SDS011;50709;52.648;4.764;2023-04-06T03:14:53;17.30;;;9.80;;
64387;SDS011;50709;52.648;4.764;2023-04-06T03:17:21;15.75;;;9.40;;
64387;SDS011;50709;52.648;4.764;2023-04-06T03:20:30;15.88;;;9.43;;
64387;SDS011;50709;52.648;4.764;2023-04-06T03:23:21;16.48;;;9.25;;
64387;SDS011;50709;52.648;4.764;2023-04-06T03:26:07;15.15;;;9.18;;
64387;SDS011;50709;52.648;4.764;2023-04-06T03:28:35;16.02;;;8.95;;
64387;SDS011;50709;52.648;4.764;2023-04-06T03:31:21;17.35;;;10.00;;
64387;SDS011;50709;52.648;4.764;2023-04-06T03:33:47;15.65;;;8.95;;
64387;SDS011;50709;52.648;4.764;2023-04-06T03:36:12;15.15;;;9.10;;
64387;SDS011;50709;52.648;4.764;2023-04-06T03:38:39;15.90;;;9.73;;
64387;SDS011;50709;52.648;4.764;2023-04-06T03:41:05;16.83;;;9.20;;
64387;SDS011;50709;52.648;4.764;2023-04-06T03:43:33;19.75;;;10.38;;
64387;SDS011;50709;52.648;4.764;2023-04-06T03:46:20;14.68;;;9.40;;
64387;SDS011;50709;52.648;4.764;2023-04-06T03:49:06;17.50;;;10.02;;
64387;SDS011;50709;52.648;4.764;2023-04-06T03:51:31;16.85;;;10.05;;
64387;SDS011;50709;52.648;4.764;2023-04-06T03:54:37;17.38;;;10.20;;
64387;SDS011;50709;52.648;4.764;2023-04-06T03:57:03;15.50;;;9.68;;
64387;SDS011;50709;52.648;4.764;2023-04-06T03:59:50;15.75;;;9.45;;
64387;SDS011;50709;52.648;4.764;2023-04-06T04:02:19;18.02;;;9.25;;
64387;SDS011;50709;52.648;4.764;2023-04-06T04:04:45;16.63;;;9.70;;
64387;SDS011;50709;52.648;4.764;2023-04-06T04:07:35;16.70;;;9.65;;
64387;SDS011;50709;52.648;4.764;2023-04-06T04:10:00;16.92;;;9.38;;
64387;SDS011;50709;52.648;4.764;2023-04-06T04:12:26;16.85;;;9.80;;
64387;SDS011;50709;52.648;4.764;2023-04-06T04:14:53;16.98;;;10.15;;
64387;SDS011;50709;52.648;4.764;2023-04-06T04:17:39;16.48;;;8.73;;
64387;SDS011;50709;52.648;4.764;2023-04-06T04:20:06;15.35;;;9.25;;
64387;SDS011;50709;52.648;4.764;2023-04-06T04:22:33;17.25;;;9.77;;
64387;SDS011;50709;52.648;4.764;2023-04-06T04:25:00;15.65;;;9.85;;
64387;SDS011;50709;52.648;4.764;2023-04-06T04:27:47;16.27;;;9.80;;
64387;SDS011;50709;52.648;4.764;2023-04-06T04:30:22;16.25;;;10.00;;
64387;SDS011;50709;52.648;4.764;2023-04-06T04:32:48;17.50;;;9.38;;
64387;SDS011;50709;52.648;4.764;2023-04-06T04:35:34;16.10;;;9.32;;
64387;SDS011;50709;52.648;4.764;2023-04-06T04:37:59;16.92;;;9.60;;
64387;SDS011;50709;52.648;4.764;2023-04-06T04:40:25;17.23;;;10.07;;
64387;SDS011;50709;52.648;4.764;2023-04-06T04:42:51;14.27;;;9.02;;
64387;SDS011;50709;52.648;4.764;2023-04-06T04:45:17;14.77;;;9.45;;
64387;SDS011;50709;52.648;4.764;2023-04-06T04:48:02;18.17;;;8.90;;
64387;SDS011;50709;52.648;4.764;2023-04-06T04:50:30;16.30;;;9.23;;
64387;SDS011;50709;52.648;4.764;2023-04-06T04:52:55;18.73;;;10.48;;
64387;SDS011;50709;52.648;4.764;2023-04-06T04:55:22;17.92;;;10.63;;
64387;SDS011;50709;52.648;4.764;2023-04-06T04:58:08;16.05;;;9.57;;
64387;SDS011;50709;52.648;4.764;2023-04-06T05:00:53;15.68;;;9.77;;
64387;SDS011;50709;52.648;4.764;2023-04-06T05:03:24;16.40;;;9.13;;
64387;SDS011;50709;52.648;4.764;2023-04-06T05:05:51;17.08;;;9.55;;
64387;SDS011;50709;52.648;4.764;2023-04-06T05:08:37;18.10;;;9.02;;
64387;SDS011;50709;52.648;4.764;2023-04-06T05:11:05;18.75;;;10.32;;
64387;SDS011;50709;52.648;4.764;2023-04-06T05:13:31;16.00;;;8.63;;
64387;SDS011;50709;52.648;4.764;2023-04-06T05:15:57;15.63;;;9.65;;
64387;SDS011;50709;52.648;4.764;2023-04-06T05:18:44;16.30;;;9.60;;
64387;SDS011;50709;52.648;4.764;2023-04-06T05:21:10;20.92;;;11.65;;
64387;SDS011;50709;52.648;4.764;2023-04-06T05:23:59;19.60;;;10.63;;
64387;SDS011;50709;52.648;4.764;2023-04-06T05:26:27;15.27;;;9.57;;
64387;SDS011;50709;52.648;4.764;2023-04-06T05:29:13;17.88;;;10.90;;
64387;SDS011;50709;52.648;4.764;2023-04-06T05:31:38;17.98;;;10.82;;
64387;SDS011;50709;52.648;4.764;2023-04-06T05:34:04;15.40;;;9.82;;
64387;SDS011;50709;52.648;4.764;2023-04-06T05:36:30;17.35;;;10.70;;
64387;SDS011;50709;52.648;4.764;2023-04-06T05:38:57;18.23;;;11.63;;
64387;SDS011;50709;52.648;4.764;2023-04-06T05:41:23;26.80;;;16.70;;
64387;SDS011;50709;52.648;4.764;2023-04-06T05:43:49;21.67;;;11.75;;
64387;SDS011;50709;52.648;4.764;2023-04-06T05:46:15;20.23;;;11.48;;
64387;SDS011;50709;52.648;4.764;2023-04-06T05:48:40;18.20;;;10.65;;
64387;SDS011;50709;52.648;4.764;2023-04-06T05:51:06;17.50;;;10.00;;
64387;SDS011;50709;52.648;4.764;2023-04-06T05:53:31;16.15;;;10.38;;
64387;SDS011;50709;52.648;4.764;2023-04-06T05:56:00;19.65;;;10.85;;
64387;SDS011;50709;52.648;4.764;2023-04-06T05:58:26;18.10;;;11.57;;
64387;SDS011;50709;52.648;4.764;2023-04-06T06:00:56;16.98;;;10.45;;
64387;SDS011;50709;52.648;4.764;2023-04-06T06:03:22;17.08;;;10.95;;
64387;SDS011;50709;52.648;4.764;2023-04-06T06:05:48;16.08;;;10.38;;
64387;SDS011;50709;52.648;4.764;2023-04-06T06:08:13;17.05;;;11.63;;
64387;SDS011;50709;52.648;4.764;2023-04-06T06:10:39;16.30;;;10.70;;
64387;SDS011;50709;52.648;4.764;2023-04-06T06:13:05;18.55;;;11.02;;
64387;SDS011;50709;52.648;4.764;2023-04-06T06:15:30;19.70;;;11.27;;
64387;SDS011;50709;52.648;4.764;2023-04-06T06:17:56;18.45;;;10.63;;
64387;SDS011;50709;52.648;4.764;2023-04-06T06:20:21;29.83;;;16.50;;
64387;SDS011;50709;52.648;4.764;2023-04-06T06:22:47;23.38;;;12.30;;
64387;SDS011;50709;52.648;4.764;2023-04-06T06:25:12;21.90;;;13.63;;
64387;SDS011;50709;52.648;4.764;2023-04-06T06:27:38;20.80;;;11.82;;
64387;SDS011;50709;52.648;4.764;2023-04-06T06:30:04;19.70;;;11.15;;
64387;SDS011;50709;52.648;4.764;2023-04-06T06:32:29;22.83;;;12.10;;
64387;SDS011;50709;52.648;4.764;2023-04-06T06:34:55;21.17;;;12.07;;
64387;SDS011;50709;52.648;4.764;2023-04-06T06:37:20;20.33;;;12.65;;
64387;SDS011;50709;52.648;4.764;2023-04-06T06:39:46;18.42;;;11.05;;
64387;SDS011;50709;52.648;4.764;2023-04-06T06:42:11;20.48;;;12.30;;
64387;SDS011;50709;52.648;4.764;2023-04-06T06:44:37;21.80;;;11.73;;
64387;SDS011;50709;52.648;4.764;2023-04-06T06:47:02;20.85;;;13.65;;
64387;SDS011;50709;52.648;4.764;2023-04-06T06:49:27;21.55;;;12.07;;
64387;SDS011;50709;52.648;4.764;2023-04-06T06:51:53;21.73;;;12.48;;
64387;SDS011;50709;52.648;4.764;2023-04-06T06:54:18;24.40;;;13.90;;
64387;SDS011;50709;52.648;4.764;2023-04-06T06:56:43;22.45;;;12.82;;
64387;SDS011;50709;52.648;4.764;2023-04-06T06:59:09;28.15;;;14.02;;
64387;SDS011;50709;52.648;4.764;2023-04-06T07:01:34;23.23;;;14.00;;
64387;SDS011;50709;52.648;4.764;2023-04-06T07:04:00;24.00;;;12.95;;
64387;SDS011;50709;52.648;4.764;2023-04-06T07:06:25;24.23;;;12.60;;
64387;SDS011;50709;52.648;4.764;2023-04-06T07:08:51;26.63;;;14.70;;
64387;SDS011;50709;52.648;4.764;2023-04-06T07:11:16;23.70;;;14.30;;
64387;SDS011;50709;52.648;4.764;2023-04-06T07:13:42;28.58;;;16.17;;
64387;SDS011;50709;52.648;4.764;2023-04-06T07:16:08;26.85;;;14.93;;
64387;SDS011;50709;52.648;4.764;2023-04-06T07:18:33;31.75;;;17.55;;
64387;SDS011;50709;52.648;4.764;2023-04-06T07:20:59;26.58;;;15.63;;
64387;SDS011;50709;52.648;4.764;2023-04-06T07:23:24;29.50;;;16.90;;
64387;SDS011;50709;52.648;4.764;2023-04-06T07:25:49;27.75;;;16.85;;
64387;SDS011;50709;52.648;4.764;2023-04-06T07:28:17;28.73;;;16.05;;
64387;SDS011;50709;52.648;4.764;2023-04-06T07:30:42;28.77;;;17.42;;
64387;SDS011;50709;52.648;4.764;2023-04-06T07:33:08;28.35;;;17.45;;
64387;SDS011;50709;52.648;4.764;2023-04-06T07:35:33;29.73;;;18.27;;
64387;SDS011;50709;52.648;4.764;2023-04-06T07:37:59;30.52;;;19.77;;
64387;SDS011;50709;52.648;4.764;2023-04-06T07:40:25;27.98;;;17.02;;
64387;SDS011;50709;52.648;4.764;2023-04-06T07:42:51;25.88;;;14.60;;
64387;SDS011;50709;52.648;4.764;2023-04-06T07:45:17;28.25;;;16.33;;
64387;SDS011;50709;52.648;4.764;2023-04-06T07:47:43;27.60;;;16.05;;
64387;SDS011;50709;52.648;4.764;2023-04-06T07:50:09;28.23;;;17.88;;
64387;SDS011;50709;52.648;4.764;2023-04-06T07:52:35;32.30;;;19.23;;
64387;SDS011;50709;52.648;4.764;2023-04-06T07:55:00;28.23;;;17.25;;
64387;SDS011;50709;52.648;4.764;2023-04-06T07:57:26;33.47;;;18.23;;
64387;SDS011;50709;52.648;4.764;2023-04-06T07:59:51;32.50;;;19.52;;
64387;SDS011;50709;52.648;4.764;2023-04-06T08:02:16;32.83;;;16.15;;
64387;SDS011;50709;52.648;4.764;2023-04-06T08:04:42;28.42;;;16.40;;
64387;SDS011;50709;52.648;4.764;2023-04-06T08:07:08;31.27;;;18.92;;
64387;SDS011;50709;52.648;4.764;2023-04-06T08:09:33;29.65;;;17.15;;
64387;SDS011;50709;52.648;4.764;2023-04-06T08:11:59;34.10;;;19.00;;
64387;SDS011;50709;52.648;4.764;2023-04-06T08:14:24;31.08;;;16.90;;
64387;SDS011;50709;52.648;4.764;2023-04-06T08:16:50;28.73;;;16.55;;
64387;SDS011;50709;52.648;4.764;2023-04-06T08:19:15;33.53;;;19.13;;
64387;SDS011;50709;52.648;4.764;2023-04-06T08:21:42;32.78;;;18.98;;
64387;SDS011;50709;52.648;4.764;2023-04-06T08:24:08;37.38;;;20.75;;
64387;SDS011;50709;52.648;4.764;2023-04-06T08:26:33;33.38;;;18.75;;
64387;SDS011;50709;52.648;4.764;2023-04-06T08:28:59;32.55;;;19.67;;
64387;SDS011;50709;52.648;4.764;2023-04-06T08:31:24;35.13;;;19.63;;
64387;SDS011;50709;52.648;4.764;2023-04-06T08:33:51;34.83;;;19.33;;
64387;SDS011;50709;52.648;4.764;2023-04-06T08:36:16;35.78;;;18.83;;
64387;SDS011;50709;52.648;4.764;2023-04-06T08:38:45;34.53;;;18.23;;
64387;SDS011;50709;52.648;4.764;2023-04-06T08:41:11;36.40;;;19.98;;
64387;SDS011;50709;52.648;4.764;2023-04-06T08:43:44;35.97;;;21.90;;
64387;SDS011;50709;52.648;4.764;2023-04-06T08:46:12;36.05;;;20.73;;
64387;SDS011;50709;52.648;4.764;2023-04-06T08:48:38;38.00;;;20.75;;
64387;SDS011;50709;52.648;4.764;2023-04-06T08:51:05;34.65;;;18.15;;
64387;SDS011;50709;52.648;4.764;2023-04-06T08:53:31;34.35;;;20.75;;
64387;SDS011;50709;52.648;4.764;2023-04-06T08:55:57;35.38;;;18.75;;
64387;SDS011;50709;52.648;4.764;2023-04-06T08:58:23;35.72;;;18.88;;
64387;SDS011;50709;52.648;4.764;2023-04-06T09:00:50;29.13;;;16.05;;
64387;SDS011;50709;52.648;4.764;2023-04-06T09:03:17;24.30;;;13.85;;
64387;SDS011;50709;52.648;4.764;2023-04-06T09:05:45;31.48;;;16.35;;
64387;SDS011;50709;52.648;4.764;2023-04-06T09:08:11;27.67;;;16.85;;
64387;SDS011;50709;52.648;4.764;2023-04-06T09:10:39;26.90;;;15.73;;
64387;SDS011;50709;52.648;4.764;2023-04-06T09:13:06;26.55;;;16.50;;
64387;SDS011;50709;52.648;4.764;2023-04-06T09:15:32;25.77;;;14.73;;
64387;SDS011;50709;52.648;4.764;2023-04-06T09:17:58;27.00;;;16.40;;
64387;SDS011;50709;52.648;4.764;2023-04-06T09:20:23;25.65;;;16.25;;
64387;SDS011;50709;52.648;4.764;2023-04-06T09:22:53;25.98;;;13.93;;
64387;SDS011;50709;52.648;4.764;2023-04-06T09:25:20;25.88;;;13.98;;
64387;SDS011;50709;52.648;4.764;2023-04-06T09:27:48;20.13;;;11.73;;
64387;SDS011;50709;52.648;4.764;2023-04-06T09:30:14;25.52;;;13.80;;
64387;SDS011;50709;52.648;4.764;2023-04-06T09:32:58;28.25;;;15.60;;
64387;SDS011;50709;52.648;4.764;2023-04-06T09:35:24;25.95;;;14.73;;
64387;SDS011;50709;52.648;4.764;2023-04-06T09:37:52;25.10;;;14.82;;
64387;SDS011;50709;52.648;4.764;2023-04-06T09:40:18;21.73;;;12.93;;
64387;SDS011;50709;52.648;4.764;2023-04-06T09:42:45;23.55;;;13.68;;
64387;SDS011;50709;52.648;4.764;2023-04-06T09:45:11;26.73;;;16.05;;
64387;SDS011;50709;52.648;4.764;2023-04-06T09:47:37;21.50;;;12.55;;
64387;SDS011;50709;52.648;4.764;2023-04-06T09:50:05;22.60;;;12.98;;
64387;SDS011;50709;52.648;4.764;2023-04-06T09:52:34;27.55;;;16.90;;
64387;SDS011;50709;52.648;4.764;2023-04-06T09:55:27;23.17;;;13.13;;
64387;SDS011;50709;52.648;4.764;2023-04-06T10:00:32;26.00;;;15.55;;
64387;SDS011;50709;52.648;4.764;2023-04-06T10:06:13;28.13;;;14.77;;
64387;SDS011;50709;52.648;4.764;2023-04-06T10:08:40;23.40;;;15.13;;
64387;SDS011;50709;52.648;4.764;2023-04-06T10:11:08;26.00;;;15.45;;
64387;SDS011;50709;52.648;4.764;2023-04-06T10:13:34;24.15;;;15.55;;
64387;SDS011;50709;52.648;4.764;2023-04-06T10:16:00;21.38;;;13.48;;
64387;SDS011;50709;52.648;4.764;2023-04-06T10:18:27;27.30;;;16.20;;
64387;SDS011;50709;52.648;4.764;2023-04-06T10:23:44;21.17;;;13.00;;
64387;SDS011;50709;52.648;4.764;2023-04-06T10:26:13;27.35;;;17.90;;
64387;SDS011;50709;52.648;4.764;2023-04-06T10:28:41;24.25;;;15.07;;
64387;SDS011;50709;52.648;4.764;2023-04-06T10:31:07;28.10;;;17.73;;
64387;SDS011;50709;52.648;4.764;2023-04-06T10:33:33;25.13;;;15.93;;
64387;SDS011;50709;52.648;4.764;2023-04-06T10:36:09;26.33;;;14.50;;
64387;SDS011;50709;52.648;4.764;2023-04-06T10:38:46;25.20;;;14.75;;
64387;SDS011;50709;52.648;4.764;2023-04-06T10:41:12;23.92;;;13.38;;
64387;SDS011;50709;52.648;4.764;2023-04-06T10:43:38;26.30;;;14.70;;
64387;SDS011;50709;52.648;4.764;2023-04-06T10:46:05;28.08;;;14.88;;
64387;SDS011;50709;52.648;4.764;2023-04-06T10:48:42;23.45;;;13.93;;
64387;SDS011;50709;52.648;4.764;2023-04-06T10:51:14;21.63;;;13.52;;
64387;SDS011;50709;52.648;4.764;2023-04-06T10:53:47;29.67;;;15.50;;
64387;SDS011;50709;52.648;4.764;2023-04-06T10:58:49;22.80;;;12.90;;
64387;SDS011;50709;52.648;4.764;2023-04-06T11:01:17;22.42;;;14.73;;
64387;SDS011;50709;52.648;4.764;2023-04-06T11:03:44;27.00;;;18.13;;
64387;SDS011;50709;52.648;4.764;2023-04-06T11:06:11;24.55;;;14.75;;
64387;SDS011;50709;52.648;4.764;2023-04-06T11:08:43;23.48;;;15.68;;
64387;SDS011;50709;52.648;4.764;2023-04-06T11:16:21;25.95;;;15.93;;
64387;SDS011;50709;52.648;4.764;2023-04-06T11:18:50;28.45;;;16.25;;
64387;SDS011;50709;52.648;4.764;2023-04-06T11:21:31;26.60;;;16.63;;
64387;SDS011;50709;52.648;4.764;2023-04-06T11:24:22;30.25;;;16.77;;
64387;SDS011;50709;52.648;4.764;2023-04-06T11:26:50;26.90;;;15.75;;
64387;SDS011;50709;52.648;4.764;2023-04-06T11:29:19;27.42;;;17.10;;
64387;SDS011;50709;52.648;4.764;2023-04-06T11:31:49;25.48;;;15.90;;
64387;SDS011;50709;52.648;4.764;2023-04-06T11:34:20;21.67;;;12.82;;
64387;SDS011;50709;52.648;4.764;2023-04-06T11:36:48;20.73;;;12.80;;
64387;SDS011;50709;52.648;4.764;2023-04-06T11:39:18;15.60;;;9.98;;
64387;SDS011;50709;52.648;4.764;2023-04-06T11:41:51;15.88;;;10.07;;
64387;SDS011;50709;52.648;4.764;2023-04-06T11:47:04;21.77;;;13.18;;
64387;SDS011;50709;52.648;4.764;2023-04-06T11:49:31;21.67;;;13.68;;
64387;SDS011;50709;52.648;4.764;2023-04-06T11:51:58;22.75;;;13.38;;
64387;SDS011;50709;52.648;4.764;2023-04-06T11:54:34;20.70;;;12.52;;
64387;SDS011;50709;52.648;4.764;2023-04-06T11:57:02;18.98;;;12.18;;
64387;SDS011;50709;52.648;4.764;2023-04-06T11:59:29;15.48;;;11.00;;
64387;SDS011;50709;52.648;4.764;2023-04-06T12:01:56;17.77;;;11.50;;
64387;SDS011;50709;52.648;4.764;2023-04-06T12:04:22;16.70;;;11.23;;
64387;SDS011;50709;52.648;4.764;2023-04-06T12:06:47;16.92;;;12.23;;
64387;SDS011;50709;52.648;4.764;2023-04-06T12:09:13;18.67;;;12.07;;
64387;SDS011;50709;52.648;4.764;2023-04-06T12:11:39;15.68;;;10.65;;
64387;SDS011;50709;52.648;4.764;2023-04-06T12:14:05;18.73;;;11.00;;
64387;SDS011;50709;52.648;4.764;2023-04-06T12:16:32;9.40;;;5.57;;
64387;SDS011;50709;52.648;4.764;2023-04-06T12:18:59;17.95;;;10.77;;
64387;SDS011;50709;52.648;4.764;2023-04-06T12:21:26;14.80;;;10.85;;
64387;SDS011;50709;52.648;4.764;2023-04-06T12:23:53;14.00;;;10.60;;
64387;SDS011;50709;52.648;4.764;2023-04-06T12:26:18;13.93;;;9.10;;
64387;SDS011;50709;52.648;4.764;2023-04-06T12:28:44;14.88;;;10.52;;
64387;SDS011;50709;52.648;4.764;2023-04-06T12:31:16;13.57;;;9.70;;
64387;SDS011;50709;52.648;4.764;2023-04-06T12:33:42;12.75;;;8.57;;
64387;SDS011;50709;52.648;4.764;2023-04-06T12:36:13;11.30;;;8.48;;
64387;SDS011;50709;52.648;4.764;2023-04-06T12:38:39;11.85;;;8.10;;
64387;SDS011;50709;52.648;4.764;2023-04-06T12:41:06;12.57;;;8.27;;
64387;SDS011;50709;52.648;4.764;2023-04-06T12:43:31;9.82;;;7.45;;
64387;SDS011;50709;52.648;4.764;2023-04-06T12:45:57;12.15;;;8.00;;
64387;SDS011;50709;52.648;4.764;2023-04-06T12:48:22;12.75;;;8.25;;
64387;SDS011;50709;52.648;4.764;2023-04-06T12:51:08;12.20;;;7.65;;
64387;SDS011;50709;52.648;4.764;2023-04-06T12:53:34;11.75;;;8.32;;
64387;SDS011;50709;52.648;4.764;2023-04-06T12:56:00;10.98;;;7.25;;
64387;SDS011;50709;52.648;4.764;2023-04-06T12:58:26;11.55;;;8.30;;
64387;SDS011;50709;52.648;4.764;2023-04-06T13:00:53;10.88;;;7.50;;
64387;SDS011;50709;52.648;4.764;2023-04-06T13:03:19;13.40;;;8.15;;
64387;SDS011;50709;52.648;4.764;2023-04-06T13:05:46;13.32;;;8.32;;
64387;SDS011;50709;52.648;4.764;2023-04-06T13:08:12;10.10;;;6.90;;
64387;SDS011;50709;52.648;4.764;2023-04-06T13:10:48;9.90;;;7.78;;
64387;SDS011;50709;52.648;4.764;2023-04-06T13:13:16;10.38;;;7.22;;
64387;SDS011;50709;52.648;4.764;2023-04-06T13:15:41;9.60;;;6.65;;
64387;SDS011;50709;52.648;4.764;2023-04-06T13:18:07;11.10;;;7.57;;
64387;SDS011;50709;52.648;4.764;2023-04-06T13:20:33;11.75;;;7.25;;
64387;SDS011;50709;52.648;4.764;2023-04-06T13:22:59;12.65;;;7.28;;
64387;SDS011;50709;52.648;4.764;2023-04-06T13:25:24;11.38;;;8.40;;
64387;SDS011;50709;52.648;4.764;2023-04-06T13:27:50;11.18;;;8.02;;
64387;SDS011;50709;52.648;4.764;2023-04-06T13:30:15;10.30;;;7.30;;
64387;SDS011;50709;52.648;4.764;2023-04-06T13:32:41;9.65;;;7.30;;
64387;SDS011;50709;52.648;4.764;2023-04-06T13:35:06;11.25;;;8.35;;
64387;SDS011;50709;52.648;4.764;2023-04-06T13:37:33;10.88;;;7.22;;
64387;SDS011;50709;52.648;4.764;2023-04-06T13:39:59;12.55;;;8.48;;
64387;SDS011;50709;52.648;4.764;2023-04-06T13:42:25;10.70;;;7.70;;
64387;SDS011;50709;52.648;4.764;2023-04-06T13:44:51;11.88;;;8.27;;
64387;SDS011;50709;52.648;4.764;2023-04-06T13:47:18;12.88;;;7.47;;
64387;SDS011;50709;52.648;4.764;2023-04-06T13:49:44;10.45;;;6.65;;
64387;SDS011;50709;52.648;4.764;2023-04-06T13:52:10;10.45;;;7.55;;
64387;SDS011;50709;52.648;4.764;2023-04-06T13:54:55;9.85;;;6.90;;
64387;SDS011;50709;52.648;4.764;2023-04-06T13:57:22;12.10;;;7.80;;
64387;SDS011;50709;52.648;4.764;2023-04-06T13:59:47;12.93;;;8.05;;
64387;SDS011;50709;52.648;4.764;2023-04-06T14:02:14;11.82;;;8.30;;
64387;SDS011;50709;52.648;4.764;2023-04-06T14:04:40;10.32;;;7.95;;
64387;SDS011;50709;52.648;4.764;2023-04-06T14:07:05;11.68;;;7.90;;
64387;SDS011;50709;52.648;4.764;2023-04-06T14:09:34;10.32;;;7.47;;
64387;SDS011;50709;52.648;4.764;2023-04-06T14:11:59;11.40;;;7.22;;
64387;SDS011;50709;52.648;4.764;2023-04-06T14:14:25;11.15;;;7.93;;
64387;SDS011;50709;52.648;4.764;2023-04-06T14:16:51;11.55;;;8.27;;
64387;SDS011;50709;52.648;4.764;2023-04-06T14:19:17;11.50;;;7.50;;
64387;SDS011;50709;52.648;4.764;2023-04-06T14:22:02;11.93;;;8.30;;
64387;SDS011;50709;52.648;4.764;2023-04-06T14:24:29;11.75;;;7.78;;
64387;SDS011;50709;52.648;4.764;2023-04-06T14:26:54;12.80;;;8.32;;
64387;SDS011;50709;52.648;4.764;2023-04-06T14:29:21;10.90;;;7.85;;
64387;SDS011;50709;52.648;4.764;2023-04-06T14:31:47;10.50;;;7.65;;
64387;SDS011;50709;52.648;4.764;2023-04-06T14:34:13;12.10;;;8.70;;
64387;SDS011;50709;52.648;4.764;2023-04-06T14:36:40;12.32;;;9.00;;
64387;SDS011;50709;52.648;4.764;2023-04-06T14:39:06;11.30;;;8.18;;
64387;SDS011;50709;52.648;4.764;2023-04-06T14:41:32;12.95;;;8.75;;
64387;SDS011;50709;52.648;4.764;2023-04-06T14:43:59;12.70;;;8.55;;
64387;SDS011;50709;52.648;4.764;2023-04-06T14:46:25;12.43;;;9.38;;
64387;SDS011;50709;52.648;4.764;2023-04-06T14:48:52;13.18;;;8.60;;
64387;SDS011;50709;52.648;4.764;2023-04-06T14:51:21;11.75;;;7.82;;
64387;SDS011;50709;52.648;4.764;2023-04-06T14:53:47;14.70;;;9.48;;
64387;SDS011;50709;52.648;4.764;2023-04-06T14:56:18;12.15;;;7.93;;
64387;SDS011;50709;52.648;4.764;2023-04-06T14:58:48;13.40;;;9.02;;
64387;SDS011;50709;52.648;4.764;2023-04-06T15:01:15;14.43;;;9.38;;